This is the latest recevied weather packets stored in our database for station/object HB9FHL-13. If no packets are shown the sender has not sent any weather packets the latest 1 day(s).
| Time | Temp. | Humidity | Pressure | Rain* | Wind** | Luminosity | Snow |
|---|---|---|---|---|---|---|---|
| 1777988787 | 15° C | - | 1007.7 hPa | 0 mm | 1.79 m/s, 60° | - | - |
| 1777988487 | 15.56° C | - | 1011 hPa | 0 mm | 0.89 m/s, 42° | - | - |
| 1777988186 | 15.56° C | - | 1007.9 hPa | 0 mm | 1.34 m/s, 30° | - | - |
| 1777987886 | 15.56° C | - | 1007.2 hPa | 0 mm | 2.24 m/s, 10° | - | - |
| 1777987585 | 15.56° C | - | 1007.8 hPa | 0 mm | 2.68 m/s, 8° | - | - |
| 1777987285 | 16.11° C | - | 1008.7 hPa | 0 mm | 3.13 m/s, 24° | - | - |
| 1777986984 | 15.56° C | - | 1004.9 hPa | 0 mm | 2.24 m/s, 11° | - | - |
| 1777986684 | 14.44° C | - | 1009.3 hPa | 0 mm | 1.34 m/s, 45° | - | - |
| 1777986383 | 16.11° C | - | 1010.4 hPa | 0 mm | 1.34 m/s, 354° | - | - |
| 1777986083 | 15° C | - | 1006.7 hPa | 0 mm | 2.24 m/s, 46° | - | - |
| 1777985782 | 15.56° C | - | 1012.5 hPa | 0 mm | 2.24 m/s, 70° | - | - |
| 1777985482 | 14.44° C | - | 1009.8 hPa | 0 mm | 1.34 m/s, 72° | - | - |
| 1777985181 | 15° C | - | 1007.9 hPa | 0 mm | 0.89 m/s, 27° | - | - |
| 1777984879 | 14.44° C | - | 1007.2 hPa | 0 mm | 0.45 m/s, 311° | - | - |
| 1777984586 | 13.89° C | - | 1009.9 hPa | 0 mm | 0.45 m/s, 339° | - | - |
| 1777983977 | 13.89° C | - | 1009.3 hPa | 0 mm | 2.24 m/s, 3° | - | - |
| 1777983676 | 13.33° C | - | 1008.7 hPa | 0 mm | 1.34 m/s, 6° | - | - |
| 1777983375 | 13.89° C | - | 1009.5 hPa | 0 mm | 1.34 m/s, 359° | - | - |
| 1777983075 | 14.44° C | - | 1008.6 hPa | 0 mm | 1.79 m/s, 10° | - | - |
| 1777982811 | 14.44° C | - | 1011.6 hPa | 0 mm | 0.89 m/s, 246° | - | - |
| 1777982774 | 14.44° C | - | 1011.6 hPa | 0 mm | 0.89 m/s, 246° | - | - |
| 1777982472 | 13.33° C | - | 1009.9 hPa | 0 mm | 0.89 m/s, 232° | - | - |
| 1777982172 | 13.33° C | - | 1009.5 hPa | 0 mm | 0.45 m/s, 274° | - | - |
| 1777981871 | 13.33° C | - | 1008.4 hPa | 0 mm | 0.89 m/s, 277° | - | - |
| 1777981572 | 12.78° C | - | 1007.6 hPa | 0 mm | 0.45 m/s, 333° | - | - |
* Rain since midnight (hover to see other rain measurements)
** Current wind speed in m/s (hover to see current wind gust speed)